| time (UTC) | temp F | wind direction | speed MPH | gust MPH | rain 1hr in | rain 24hr in | rain mn in | humidity % | barometer mb |
| 20260508070025 | 56 | 237 | 0.0 | 3.0 | 0.00 | 0.02 | 0.00 | 87 | 1012.9 |
| 20260508064538 | 55 | 278 | 0.0 | 2.0 | 0.00 | 0.02 | 0.00 | 87 | 1012.9 |
| 20260508063023 | 55 | 278 | 0.0 | 4.0 | 0.00 | 0.02 | 0.00 | 87 | 1012.7 |
| 20260508061523 | 54 | 275 | 1.0 | 4.0 | 0.00 | 0.02 | 0.00 | 87 | 1012.7 |
| 20260508060019 | 54 | 263 | 0.0 | 1.0 | 0.00 | 0.02 | 0.00 | 87 | 1012.5 |
| 20260508054532 | 54 | 263 | 0.0 | 2.0 | 0.00 | 0.02 | 0.00 | 87 | 1012.1 |
| 20260508053012 | 53 | 281 | 0.0 | 2.0 | 0.00 | 0.02 | 0.00 | 87 | 1012.0 |
| 20260508051512 | 54 | 281 | 0.0 | 3.0 | 0.00 | 0.02 | 0.00 | 87 | 1012.1 |
| 20260508050010 | 54 | 281 | 0.0 | 2.0 | 0.00 | 0.02 | 0.00 | 87 | 1012.0 |
| 20260508044510 | 54 | 281 | 1.0 | 6.0 | 0.00 | 0.02 | 0.00 | 87 | 1011.7 |
| 20260508043008 | 54 | 265 | 2.0 | 7.0 | 0.00 | 0.02 | 0.00 | 88 | 1011.9 |
| 20260508041507 | 54 | 287 | 1.0 | 4.0 | 0.00 | 0.02 | 0.00 | 88 | 1011.8 |
| 20260508040027 | 53 | 298 | 2.0 | 7.0 | 0.00 | 0.02 | 0.00 | 89 | 1011.8 |
| 20260508034506 | 53 | 265 | 0.0 | 4.0 | 0.00 | 0.02 | 0.00 | 89 | 1011.7 |
| 20260508033006 | 53 | 279 | 0.0 | 3.0 | 0.00 | 0.02 | 0.00 | 89 | 1011.4 |
| 20260508031508 | 54 | 291 | 1.0 | 4.0 | 0.00 | 0.02 | 0.00 | 89 | 1011.7 |
| 20260508030100 | 54 | 292 | 0.0 | 5.0 | 0.00 | 0.02 | 0.00 | 89 | 1012.0 |
| 20260508024558 | 54 | 317 | 1.0 | 3.0 | 0.00 | 0.02 | 0.00 | 88 | 1012.1 |
| 20260508023057 | 54 | 113 | 0.0 | 2.0 | 0.00 | 0.02 | 0.00 | 89 | 1012.0 |
| 20260508021557 | 54 | 111 | 0.0 | 0.0 | 0.00 | 0.02 | 0.00 | 88 | 1012.1 |
| 20260508020058 | 54 | 111 | 0.0 | 0.0 | 0.00 | 0.02 | 0.00 | 88 | 1012.2 |
| 20260508014554 | 54 | 111 | 0.0 | 0.0 | 0.00 | 0.02 | 0.00 | 88 | 1012.1 |
| 20260508013051 | 54 | 111 | 0.0 | 3.0 | 0.00 | 0.02 | 0.00 | 88 | 1012.4 |
| 20260508011549 | 55 | 110 | 0.0 | 0.0 | 0.00 | 0.02 | 0.00 | 88 | 1012.5 |
| 20260508010048 | 55 | 110 | 0.0 | 0.0 | 0.00 | 0.02 | 0.00 | 87 | 1012.6 |
| 20260508004550 | 55 | 111 | 0.0 | 0.0 | 0.00 | 0.02 | 0.00 | 87 | 1012.7 |
| 20260508003048 | 56 | 110 | 0.0 | 1.0 | 0.00 | 0.02 | 0.00 | 87 | 1013.0 |
| 20260508001541 | 56 | 110 | 0.0 | 2.0 | 0.00 | 0.02 | 0.00 | 87 | 1013.2 |
| 20260508000039 | 56 | 111 | 0.0 | 1.0 | 0.00 | 0.02 | 0.00 | 87 | 1013.3 |
| 20260507234547 | 56 | 111 | 0.0 | 2.0 | 0.00 | 0.02 | 0.00 | 87 | 1013.2 |
| 20260507233039 | 56 | 110 | 0.0 | 2.0 | 0.00 | 0.02 | 0.00 | 86 | 1013.5 |
| 20260507231533 | 56 | 111 | 0.0 | 0.0 | 0.00 | 0.02 | 0.00 | 87 | 1013.5 |
| 20260507230032 | 57 | 110 | 0.0 | 1.0 | 0.00 | 0.02 | 0.00 | 86 | 1013.7 |
| 20260507224531 | 57 | 111 | 0.0 | 0.0 | 0.00 | 0.02 | 0.00 | 86 | 1013.7 |
| 20260507223029 | 57 | 111 | 0.0 | 0.0 | 0.00 | 0.02 | 0.00 | 86 | 1013.6 |
| 20260507221532 | 57 | 111 | 0.0 | 1.0 | 0.00 | 0.02 | 0.00 | 85 | 1013.6 |
| 20260507220035 | 57 | 111 | 0.0 | 1.0 | 0.00 | 0.02 | 0.00 | 85 | 1013.5 |
| 20260507214522 | 57 | 110 | 0.0 | 0.0 | 0.00 | 0.02 | 0.02 | 85 | 1013.3 |
| 20260507213027 | 58 | 111 | 0.0 | 4.0 | 0.00 | 0.02 | 0.02 | 84 | 1013.2 |
| 20260507211519 | 58 | 110 | 2.0 | 4.0 | 0.00 | 0.02 | 0.02 | 84 | 1013.1 |
| 20260507210025 | 58 | 101 | 2.0 | 6.0 | 0.00 | 0.02 | 0.02 | 83 | 1012.9 |
| 20260507204515 | 59 | 117 | 1.0 | 7.0 | 0.00 | 0.02 | 0.02 | 82 | 1012.9 |
| 20260507203016 | 59 | 129 | 4.0 | 10.0 | 0.00 | 0.02 | 0.02 | 82 | 1012.8 |
| 20260507201512 | 60 | 112 | 3.0 | 7.0 | 0.00 | 0.02 | 0.02 | 82 | 1012.7 |
| 20260507200012 | 60 | 110 | 3.0 | 6.0 | 0.00 | 0.02 | 0.02 | 82 | 1012.6 |
| 20260507194523 | 60 | 114 | 2.0 | 8.0 | 0.00 | 0.02 | 0.02 | 81 | 1012.4 |
| 20260507193007 | 61 | 118 | 3.0 | 8.0 | 0.00 | 0.02 | 0.02 | 80 | 1012.0 |
| 20260507191504 | 61 | 116 | 2.0 | 6.0 | 0.00 | 0.02 | 0.02 | 79 | 1011.7 |
| 20260507190004 | 62 | 115 | 4.0 | 7.0 | 0.00 | 0.02 | 0.02 | 78 | 1011.5 |
| 20260507184501 | 62 | 117 | 2.0 | 8.0 | 0.00 | 0.02 | 0.02 | 76 | 1011.4 |
| 20260507183117 | 63 | 113 | 3.0 | 9.0 | 0.00 | 0.02 | 0.02 | 75 | 1011.1 |
| 20260507181606 | 64 | 79 | 3.0 | 10.0 | 0.00 | 0.02 | 0.02 | 69 | 1010.8 |
| 20260507180105 | 64 | 84 | 4.0 | 13.0 | 0.00 | 0.02 | 0.02 | 70 | 1010.7 |
| 20260507174604 | 64 | 53 | 4.0 | 12.0 | 0.00 | 0.02 | 0.02 | 72 | 1010.7 |
| 20260507173110 | 63 | 344 | 3.0 | 11.0 | 0.00 | 0.02 | 0.02 | 73 | 1010.8 |
| 20260507171557 | 62 | 304 | 4.0 | 12.0 | 0.00 | 0.02 | 0.02 | 76 | 1010.8 |
| 20260507170058 | 63 | 333 | 6.0 | 12.0 | 0.00 | 0.02 | 0.02 | 76 | 1010.8 |
| 20260507164630 | 63 | 321 | 4.0 | 10.0 | 0.00 | 0.02 | 0.02 | 71 | 1010.5 |
| 20260507163058 | 64 | 350 | 5.0 | 10.0 | 0.00 | 0.02 | 0.02 | 71 | 1010.4 |
| 20260507161600 | 64 | 342 | 4.0 | 9.0 | 0.00 | 0.02 | 0.02 | 71 | 1010.3 |
| 20260507160054 | 64 | 308 | 3.0 | 8.0 | 0.00 | 0.02 | 0.02 | 74 | 1010.2 |
| 20260507154557 | 63 | 44 | 0.0 | 3.0 | 0.00 | 0.02 | 0.02 | 77 | 1010.2 |
| 20260507153056 | 63 | 44 | 2.0 | 6.0 | 0.00 | 0.02 | 0.02 | 77 | 1010.3 |
| 20260507151552 | 64 | 340 | 5.0 | 8.0 | 0.00 | 0.02 | 0.02 | 77 | 1010.3 |
| 20260507150053 | 64 | 336 | 3.0 | 6.0 | 0.00 | 0.02 | 0.02 | 78 | 1010.3 |
| 20260507144550 | 63 | 328 | 4.0 | 10.0 | 0.00 | 0.02 | 0.02 | 81 | 1010.1 |
| 20260507143049 | 63 | 355 | 1.0 | 5.0 | 0.00 | 0.02 | 0.02 | 81 | 1010.1 |
| 20260507141549 | 63 | 75 | 1.0 | 7.0 | 0.01 | 0.02 | 0.02 | 83 | 1010.2 |
| 20260507140047 | 64 | 188 | 1.0 | 8.0 | 0.01 | 0.02 | 0.02 | 83 | 1010.2 |
| 20260507134548 | 64 | 174 | 2.0 | 7.0 | 0.01 | 0.02 | 0.02 | 82 | 1010.2 |
| 20260507133145 | 64 | 250 | 1.0 | 6.0 | 0.01 | 0.02 | 0.02 | 82 | 1010.3 |
| 20260507131543 | 65 | 202 | 3.0 | 10.0 | 0.00 | 0.01 | 0.01 | 79 | 1010.2 |
| 20260507130043 | 66 | 170 | 2.0 | 8.0 | 0.00 | 0.01 | 0.01 | 77 | 1010.3 |
| 20260507124547 | 66 | 138 | 0.0 | 3.0 | 0.00 | 0.01 | 0.01 | 77 | 1010.4 |
| 20260507123043 | 66 | 138 | 0.0 | 3.0 | 0.00 | 0.01 | 0.01 | 77 | 1010.6 |
| 20260507121542 | 66 | 117 | 2.0 | 9.0 | 0.00 | 0.01 | 0.01 | 75 | 1010.8 |
| 20260507120040 | 66 | 128 | 4.0 | 12.0 | 0.00 | 0.01 | 0.01 | 73 | 1010.8 |
| 20260507114556 | 67 | 132 | 5.0 | 10.0 | 0.00 | 0.01 | 0.01 | 72 | 1010.8 |
| 20260507113101 | 66 | 98 | 3.0 | 10.0 | 0.00 | 0.01 | 0.01 | 72 | 1010.8 |
| 20260507111541 | 66 | 115 | 8.0 | 13.0 | 0.00 | 0.01 | 0.01 | 72 | 1011.0 |
| 20260507110033 | 66 | 111 | 7.0 | 12.0 | 0.00 | 0.01 | 0.01 | 73 | 1011.1 |
| 20260507104539 | 65 | 126 | 6.0 | 12.0 | 0.00 | 0.01 | 0.01 | 74 | 1011.4 |
| 20260507103131 | 66 | 109 | 6.0 | 11.0 | 0.00 | 0.01 | 0.01 | 73 | 1011.3 |
| 20260507101530 | 66 | 132 | 7.0 | 16.0 | 0.00 | 0.01 | 0.01 | 71 | 1011.2 |
| 20260507100029 | 66 | 107 | 7.0 | 14.0 | 0.00 | 0.01 | 0.01 | 71 | 1011.0 |
| 20260507094528 | 67 | 111 | 7.0 | 13.0 | 0.01 | 0.01 | 0.01 | 72 | 1011.1 |
| 20260507093028 | 66 | 111 | 5.0 | 14.0 | 0.01 | 0.01 | 0.01 | 74 | 1011.2 |
| 20260507091523 | 65 | 132 | 4.0 | 9.0 | 0.01 | 0.01 | 0.01 | 76 | 1011.4 |
| 20260507090019 | 64 | 105 | 7.0 | 13.0 | 0.01 | 0.01 | 0.01 | 76 | 1011.3 |
| 20260507084515 | 64 | 111 | 1.0 | 4.0 | 0.00 | 0.00 | 0.00 | 79 | 1011.3 |
| 20260507083015 | 64 | 41 | 0.0 | 3.0 | 0.00 | 0.00 | 0.00 | 79 | 1011.4 |
| 20260507081513 | 63 | 40 | 0.0 | 2.0 | 0.00 | 0.00 | 0.00 | 79 | 1011.4 |
| 20260507080013 | 63 | 40 | 0.0 | 3.0 | 0.00 | 0.00 | 0.00 | 79 | 1011.5 |
| 20260507074510 | 63 | 40 | 0.0 | 3.0 | 0.00 | 0.00 | 0.00 | 78 | 1011.4 |
| 20260507073008 | 63 | 40 | 1.0 | 4.0 | 0.00 | 0.00 | 0.00 | 77 | 1011.4 |
| 20260507071506 | 63 | 36 | 2.0 | 5.0 | 0.00 | 0.00 | 0.00 | 77 | 1011.2 |